sensor_id;sensor_type;location;lat;lon;timestamp;P1;durP1;ratioP1;P2;durP2;ratioP2
40154;SDS011;25875;48.202;16.334;2024-01-10T00:01:15;58.05;;;31.23;;
40154;SDS011;25875;48.202;16.334;2024-01-10T00:03:42;48.78;;;28.08;;
40154;SDS011;25875;48.202;16.334;2024-01-10T00:06:09;53.08;;;29.15;;
40154;SDS011;25875;48.202;16.334;2024-01-10T00:08:36;53.33;;;29.33;;
40154;SDS011;25875;48.202;16.334;2024-01-10T00:11:03;57.05;;;29.98;;
40154;SDS011;25875;48.202;16.334;2024-01-10T00:13:32;51.67;;;27.83;;
40154;SDS011;25875;48.202;16.334;2024-01-10T00:15:59;47.65;;;26.77;;
40154;SDS011;25875;48.202;16.334;2024-01-10T00:18:26;55.85;;;31.98;;
40154;SDS011;25875;48.202;16.334;2024-01-10T00:20:53;51.63;;;28.83;;
40154;SDS011;25875;48.202;16.334;2024-01-10T00:23:19;48.92;;;29.92;;
40154;SDS011;25875;48.202;16.334;2024-01-10T00:25:46;47.65;;;29.20;;
40154;SDS011;25875;48.202;16.334;2024-01-10T00:28:13;48.67;;;27.38;;
40154;SDS011;25875;48.202;16.334;2024-01-10T00:30:43;51.75;;;30.77;;
40154;SDS011;25875;48.202;16.334;2024-01-10T00:33:09;50.60;;;29.33;;
40154;SDS011;25875;48.202;16.334;2024-01-10T00:35:36;55.22;;;31.20;;
40154;SDS011;25875;48.202;16.334;2024-01-10T00:38:03;52.95;;;29.25;;
40154;SDS011;25875;48.202;16.334;2024-01-10T00:40:30;51.10;;;28.98;;
40154;SDS011;25875;48.202;16.334;2024-01-10T00:42:56;49.47;;;28.23;;
40154;SDS011;25875;48.202;16.334;2024-01-10T00:45:23;56.97;;;32.05;;
40154;SDS011;25875;48.202;16.334;2024-01-10T00:47:51;53.35;;;30.77;;
40154;SDS011;25875;48.202;16.334;2024-01-10T00:50:18;52.55;;;30.60;;
40154;SDS011;25875;48.202;16.334;2024-01-10T00:52:45;48.75;;;28.88;;
40154;SDS011;25875;48.202;16.334;2024-01-10T00:55:14;54.08;;;31.40;;
40154;SDS011;25875;48.202;16.334;2024-01-10T00:57:44;53.75;;;30.85;;
40154;SDS011;25875;48.202;16.334;2024-01-10T01:00:12;46.88;;;30.38;;
40154;SDS011;25875;48.202;16.334;2024-01-10T01:02:41;57.50;;;32.33;;
40154;SDS011;25875;48.202;16.334;2024-01-10T01:05:11;55.50;;;32.40;;
40154;SDS011;25875;48.202;16.334;2024-01-10T01:07:40;51.20;;;32.15;;
40154;SDS011;25875;48.202;16.334;2024-01-10T01:10:08;51.15;;;30.25;;
40154;SDS011;25875;48.202;16.334;2024-01-10T01:12:37;49.97;;;29.63;;
40154;SDS011;25875;48.202;16.334;2024-01-10T01:15:05;52.63;;;31.83;;
40154;SDS011;25875;48.202;16.334;2024-01-10T01:17:34;49.42;;;28.42;;
40154;SDS011;25875;48.202;16.334;2024-01-10T01:20:03;48.70;;;30.70;;
40154;SDS011;25875;48.202;16.334;2024-01-10T01:22:33;50.83;;;29.80;;
40154;SDS011;25875;48.202;16.334;2024-01-10T01:25:01;59.55;;;31.45;;
40154;SDS011;25875;48.202;16.334;2024-01-10T01:27:28;52.33;;;31.65;;
40154;SDS011;25875;48.202;16.334;2024-01-10T01:29:55;55.40;;;30.42;;
40154;SDS011;25875;48.202;16.334;2024-01-10T01:32:21;51.85;;;30.00;;
40154;SDS011;25875;48.202;16.334;2024-01-10T01:34:48;59.88;;;34.63;;
40154;SDS011;25875;48.202;16.334;2024-01-10T01:37:16;57.42;;;30.95;;
40154;SDS011;25875;48.202;16.334;2024-01-10T01:39:46;55.90;;;32.30;;
40154;SDS011;25875;48.202;16.334;2024-01-10T01:42:15;56.30;;;30.77;;
40154;SDS011;25875;48.202;16.334;2024-01-10T01:44:43;53.60;;;28.98;;
40154;SDS011;25875;48.202;16.334;2024-01-10T01:47:11;51.88;;;31.90;;
40154;SDS011;25875;48.202;16.334;2024-01-10T01:49:39;54.83;;;32.17;;
40154;SDS011;25875;48.202;16.334;2024-01-10T01:52:08;59.13;;;32.97;;
40154;SDS011;25875;48.202;16.334;2024-01-10T01:54:36;53.15;;;33.08;;
40154;SDS011;25875;48.202;16.334;2024-01-10T01:57:05;54.22;;;30.98;;
40154;SDS011;25875;48.202;16.334;2024-01-10T01:59:50;56.78;;;29.40;;
40154;SDS011;25875;48.202;16.334;2024-01-10T02:02:17;57.85;;;33.33;;
40154;SDS011;25875;48.202;16.334;2024-01-10T02:04:45;60.92;;;33.65;;
40154;SDS011;25875;48.202;16.334;2024-01-10T02:07:12;59.38;;;32.67;;
40154;SDS011;25875;48.202;16.334;2024-01-10T02:09:39;56.20;;;32.80;;
40154;SDS011;25875;48.202;16.334;2024-01-10T02:12:07;63.45;;;36.10;;
40154;SDS011;25875;48.202;16.334;2024-01-10T02:14:34;59.40;;;32.15;;
40154;SDS011;25875;48.202;16.334;2024-01-10T02:17:02;58.55;;;31.25;;
40154;SDS011;25875;48.202;16.334;2024-01-10T02:19:29;60.53;;;32.97;;
40154;SDS011;25875;48.202;16.334;2024-01-10T02:21:57;58.70;;;34.00;;
40154;SDS011;25875;48.202;16.334;2024-01-10T02:24:24;56.22;;;34.03;;
40154;SDS011;25875;48.202;16.334;2024-01-10T02:26:52;57.25;;;32.25;;
40154;SDS011;25875;48.202;16.334;2024-01-10T02:29:18;56.97;;;31.98;;
40154;SDS011;25875;48.202;16.334;2024-01-10T02:31:45;64.75;;;37.92;;
40154;SDS011;25875;48.202;16.334;2024-01-10T02:34:12;62.67;;;34.53;;
40154;SDS011;25875;48.202;16.334;2024-01-10T02:36:38;63.72;;;34.88;;
40154;SDS011;25875;48.202;16.334;2024-01-10T02:39:05;60.00;;;33.17;;
40154;SDS011;25875;48.202;16.334;2024-01-10T02:41:32;55.88;;;33.50;;
40154;SDS011;25875;48.202;16.334;2024-01-10T02:44:00;57.72;;;33.97;;
40154;SDS011;25875;48.202;16.334;2024-01-10T02:46:27;62.03;;;34.45;;
40154;SDS011;25875;48.202;16.334;2024-01-10T02:48:53;60.35;;;34.65;;
40154;SDS011;25875;48.202;16.334;2024-01-10T02:51:21;57.80;;;33.22;;
40154;SDS011;25875;48.202;16.334;2024-01-10T02:53:48;63.17;;;34.67;;
40154;SDS011;25875;48.202;16.334;2024-01-10T02:56:14;62.35;;;33.58;;
40154;SDS011;25875;48.202;16.334;2024-01-10T02:58:41;59.38;;;34.65;;
40154;SDS011;25875;48.202;16.334;2024-01-10T03:01:09;65.10;;;34.58;;
40154;SDS011;25875;48.202;16.334;2024-01-10T03:03:36;62.67;;;37.30;;
40154;SDS011;25875;48.202;16.334;2024-01-10T03:06:02;56.63;;;33.58;;
40154;SDS011;25875;48.202;16.334;2024-01-10T03:08:29;60.60;;;34.95;;
40154;SDS011;25875;48.202;16.334;2024-01-10T03:10:56;58.17;;;33.63;;
40154;SDS011;25875;48.202;16.334;2024-01-10T03:13:22;62.30;;;36.38;;
40154;SDS011;25875;48.202;16.334;2024-01-10T03:15:49;62.70;;;37.15;;
40154;SDS011;25875;48.202;16.334;2024-01-10T03:18:17;62.05;;;36.67;;
40154;SDS011;25875;48.202;16.334;2024-01-10T03:20:44;61.47;;;34.67;;
40154;SDS011;25875;48.202;16.334;2024-01-10T03:23:11;62.90;;;36.65;;
40154;SDS011;25875;48.202;16.334;2024-01-10T03:25:37;62.20;;;34.30;;
40154;SDS011;25875;48.202;16.334;2024-01-10T03:28:04;64.03;;;36.05;;
40154;SDS011;25875;48.202;16.334;2024-01-10T03:30:31;60.60;;;36.20;;
40154;SDS011;25875;48.202;16.334;2024-01-10T03:32:58;64.22;;;35.20;;
40154;SDS011;25875;48.202;16.334;2024-01-10T03:35:26;63.40;;;36.33;;
40154;SDS011;25875;48.202;16.334;2024-01-10T03:37:52;59.45;;;34.97;;
40154;SDS011;25875;48.202;16.334;2024-01-10T03:40:19;64.35;;;37.80;;
40154;SDS011;25875;48.202;16.334;2024-01-10T03:42:45;63.40;;;35.55;;
40154;SDS011;25875;48.202;16.334;2024-01-10T03:45:12;60.47;;;36.78;;
40154;SDS011;25875;48.202;16.334;2024-01-10T03:47:41;63.88;;;36.83;;
40154;SDS011;25875;48.202;16.334;2024-01-10T03:50:09;64.32;;;35.97;;
40154;SDS011;25875;48.202;16.334;2024-01-10T03:52:37;67.30;;;38.25;;
40154;SDS011;25875;48.202;16.334;2024-01-10T03:55:03;59.10;;;33.70;;
40154;SDS011;25875;48.202;16.334;2024-01-10T03:57:30;63.13;;;35.53;;
40154;SDS011;25875;48.202;16.334;2024-01-10T03:59:57;66.63;;;36.60;;
40154;SDS011;25875;48.202;16.334;2024-01-10T04:02:24;64.90;;;36.08;;
40154;SDS011;25875;48.202;16.334;2024-01-10T04:04:50;62.33;;;36.55;;
40154;SDS011;25875;48.202;16.334;2024-01-10T04:07:17;68.60;;;35.35;;
40154;SDS011;25875;48.202;16.334;2024-01-10T04:09:45;65.25;;;35.40;;
40154;SDS011;25875;48.202;16.334;2024-01-10T04:12:12;63.88;;;35.63;;
40154;SDS011;25875;48.202;16.334;2024-01-10T04:14:38;70.65;;;37.78;;
40154;SDS011;25875;48.202;16.334;2024-01-10T04:17:05;66.95;;;38.90;;
40154;SDS011;25875;48.202;16.334;2024-01-10T04:19:32;67.72;;;35.00;;
40154;SDS011;25875;48.202;16.334;2024-01-10T04:21:58;67.78;;;38.83;;
40154;SDS011;25875;48.202;16.334;2024-01-10T04:24:25;66.70;;;38.65;;
40154;SDS011;25875;48.202;16.334;2024-01-10T04:26:53;59.28;;;35.67;;
40154;SDS011;25875;48.202;16.334;2024-01-10T04:29:20;56.35;;;36.63;;
40154;SDS011;25875;48.202;16.334;2024-01-10T04:31:46;66.05;;;36.20;;
40154;SDS011;25875;48.202;16.334;2024-01-10T04:34:14;61.30;;;36.95;;
40154;SDS011;25875;48.202;16.334;2024-01-10T04:36:40;62.30;;;35.65;;
40154;SDS011;25875;48.202;16.334;2024-01-10T04:39:07;60.60;;;34.75;;
40154;SDS011;25875;48.202;16.334;2024-01-10T04:41:34;62.85;;;36.58;;
40154;SDS011;25875;48.202;16.334;2024-01-10T04:44:02;64.40;;;37.40;;
40154;SDS011;25875;48.202;16.334;2024-01-10T04:46:29;62.30;;;34.85;;
40154;SDS011;25875;48.202;16.334;2024-01-10T04:48:55;64.60;;;37.03;;
40154;SDS011;25875;48.202;16.334;2024-01-10T04:51:22;62.50;;;34.80;;
40154;SDS011;25875;48.202;16.334;2024-01-10T04:53:48;65.15;;;36.70;;
40154;SDS011;25875;48.202;16.334;2024-01-10T04:56:15;59.35;;;35.47;;
40154;SDS011;25875;48.202;16.334;2024-01-10T04:58:42;66.40;;;35.03;;
40154;SDS011;25875;48.202;16.334;2024-01-10T05:01:10;68.80;;;36.22;;
40154;SDS011;25875;48.202;16.334;2024-01-10T05:03:36;60.15;;;35.63;;
40154;SDS011;25875;48.202;16.334;2024-01-10T05:06:03;62.58;;;35.65;;
40154;SDS011;25875;48.202;16.334;2024-01-10T05:08:30;60.22;;;35.63;;
40154;SDS011;25875;48.202;16.334;2024-01-10T05:10:57;60.30;;;35.75;;
40154;SDS011;25875;48.202;16.334;2024-01-10T05:13:24;60.42;;;33.83;;
40154;SDS011;25875;48.202;16.334;2024-01-10T05:15:50;59.67;;;35.38;;
40154;SDS011;25875;48.202;16.334;2024-01-10T05:18:19;63.13;;;37.45;;
40154;SDS011;25875;48.202;16.334;2024-01-10T05:20:45;54.85;;;31.77;;
40154;SDS011;25875;48.202;16.334;2024-01-10T05:23:12;55.28;;;33.65;;
40154;SDS011;25875;48.202;16.334;2024-01-10T05:25:39;59.70;;;33.50;;
40154;SDS011;25875;48.202;16.334;2024-01-10T05:28:06;59.53;;;32.40;;
40154;SDS011;25875;48.202;16.334;2024-01-10T05:30:32;60.90;;;32.97;;
40154;SDS011;25875;48.202;16.334;2024-01-10T05:32:59;61.17;;;33.78;;
40154;SDS011;25875;48.202;16.334;2024-01-10T05:35:27;57.63;;;34.90;;
40154;SDS011;25875;48.202;16.334;2024-01-10T05:37:54;59.80;;;32.28;;
40154;SDS011;25875;48.202;16.334;2024-01-10T05:40:20;60.05;;;31.70;;
40154;SDS011;25875;48.202;16.334;2024-01-10T05:42:47;59.85;;;35.10;;
40154;SDS011;25875;48.202;16.334;2024-01-10T05:45:14;60.63;;;36.10;;
40154;SDS011;25875;48.202;16.334;2024-01-10T05:47:43;63.38;;;35.15;;
40154;SDS011;25875;48.202;16.334;2024-01-10T05:50:09;62.92;;;35.60;;
40154;SDS011;25875;48.202;16.334;2024-01-10T05:52:38;58.97;;;32.58;;
40154;SDS011;25875;48.202;16.334;2024-01-10T05:55:05;58.63;;;32.15;;
40154;SDS011;25875;48.202;16.334;2024-01-10T05:57:34;61.85;;;35.85;;
40154;SDS011;25875;48.202;16.334;2024-01-10T06:00:00;53.95;;;32.40;;
40154;SDS011;25875;48.202;16.334;2024-01-10T06:02:28;55.15;;;31.80;;
40154;SDS011;25875;48.202;16.334;2024-01-10T06:04:54;58.28;;;34.67;;
40154;SDS011;25875;48.202;16.334;2024-01-10T06:07:21;58.47;;;33.85;;
40154;SDS011;25875;48.202;16.334;2024-01-10T06:09:49;58.47;;;32.60;;
40154;SDS011;25875;48.202;16.334;2024-01-10T06:12:16;54.47;;;33.83;;
40154;SDS011;25875;48.202;16.334;2024-01-10T06:14:42;58.08;;;34.20;;
40154;SDS011;25875;48.202;16.334;2024-01-10T06:17:09;64.50;;;34.30;;
40154;SDS011;25875;48.202;16.334;2024-01-10T06:19:36;63.22;;;34.75;;
40154;SDS011;25875;48.202;16.334;2024-01-10T06:22:02;67.28;;;33.80;;
40154;SDS011;25875;48.202;16.334;2024-01-10T06:24:29;55.38;;;33.72;;
40154;SDS011;25875;48.202;16.334;2024-01-10T06:26:57;59.33;;;33.15;;
40154;SDS011;25875;48.202;16.334;2024-01-10T06:29:24;53.47;;;32.30;;
40154;SDS011;25875;48.202;16.334;2024-01-10T06:31:51;59.20;;;34.03;;
40154;SDS011;25875;48.202;16.334;2024-01-10T06:34:18;64.15;;;34.70;;
40154;SDS011;25875;48.202;16.334;2024-01-10T06:36:45;61.72;;;35.22;;
40154;SDS011;25875;48.202;16.334;2024-01-10T06:39:11;63.72;;;35.22;;
40154;SDS011;25875;48.202;16.334;2024-01-10T06:41:38;55.38;;;34.13;;
40154;SDS011;25875;48.202;16.334;2024-01-10T06:44:06;59.92;;;37.50;;
40154;SDS011;25875;48.202;16.334;2024-01-10T06:46:33;54.78;;;33.25;;
40154;SDS011;25875;48.202;16.334;2024-01-10T06:49:00;56.40;;;33.85;;
40154;SDS011;25875;48.202;16.334;2024-01-10T06:51:27;60.03;;;32.85;;
40154;SDS011;25875;48.202;16.334;2024-01-10T06:53:54;53.95;;;33.05;;
40154;SDS011;25875;48.202;16.334;2024-01-10T06:56:27;56.83;;;30.08;;
40154;SDS011;25875;48.202;16.334;2024-01-10T06:58:54;60.00;;;36.35;;
40154;SDS011;25875;48.202;16.334;2024-01-10T07:01:22;57.10;;;31.60;;
40154;SDS011;25875;48.202;16.334;2024-01-10T07:03:49;58.80;;;33.55;;
40154;SDS011;25875;48.202;16.334;2024-01-10T07:06:16;59.25;;;34.67;;
40154;SDS011;25875;48.202;16.334;2024-01-10T07:08:43;65.03;;;32.50;;
40154;SDS011;25875;48.202;16.334;2024-01-10T07:11:10;58.58;;;32.35;;
40154;SDS011;25875;48.202;16.334;2024-01-10T07:13:37;55.33;;;32.13;;
40154;SDS011;25875;48.202;16.334;2024-01-10T07:16:04;63.72;;;34.13;;
40154;SDS011;25875;48.202;16.334;2024-01-10T07:18:32;64.15;;;37.08;;
40154;SDS011;25875;48.202;16.334;2024-01-10T07:20:59;56.95;;;33.13;;
40154;SDS011;25875;48.202;16.334;2024-01-10T07:23:26;61.65;;;33.55;;
40154;SDS011;25875;48.202;16.334;2024-01-10T07:25:53;55.88;;;32.05;;
40154;SDS011;25875;48.202;16.334;2024-01-10T07:28:20;53.58;;;31.35;;
40154;SDS011;25875;48.202;16.334;2024-01-10T07:30:47;57.03;;;32.00;;
40154;SDS011;25875;48.202;16.334;2024-01-10T07:33:13;55.15;;;30.42;;
40154;SDS011;25875;48.202;16.334;2024-01-10T07:35:41;58.10;;;33.42;;
40154;SDS011;25875;48.202;16.334;2024-01-10T07:38:08;56.60;;;32.72;;
40154;SDS011;25875;48.202;16.334;2024-01-10T07:40:35;58.33;;;32.35;;
40154;SDS011;25875;48.202;16.334;2024-01-10T07:43:02;54.30;;;33.60;;
40154;SDS011;25875;48.202;16.334;2024-01-10T07:45:29;54.22;;;33.33;;
40154;SDS011;25875;48.202;16.334;2024-01-10T07:47:55;58.53;;;35.05;;
40154;SDS011;25875;48.202;16.334;2024-01-10T07:50:22;54.80;;;33.20;;
40154;SDS011;25875;48.202;16.334;2024-01-10T07:52:53;56.28;;;35.47;;
40154;SDS011;25875;48.202;16.334;2024-01-10T07:55:20;65.68;;;35.55;;
40154;SDS011;25875;48.202;16.334;2024-01-10T07:57:46;55.97;;;32.85;;
40154;SDS011;25875;48.202;16.334;2024-01-10T08:00:14;54.55;;;30.92;;
40154;SDS011;25875;48.202;16.334;2024-01-10T08:02:41;54.17;;;28.70;;
40154;SDS011;25875;48.202;16.334;2024-01-10T08:05:08;52.30;;;31.42;;
40154;SDS011;25875;48.202;16.334;2024-01-10T08:07:35;55.25;;;31.77;;
40154;SDS011;25875;48.202;16.334;2024-01-10T08:10:03;60.10;;;33.45;;
40154;SDS011;25875;48.202;16.334;2024-01-10T08:12:30;58.67;;;32.83;;
40154;SDS011;25875;48.202;16.334;2024-01-10T08:14:57;52.50;;;31.80;;
40154;SDS011;25875;48.202;16.334;2024-01-10T08:17:23;52.83;;;32.75;;
40154;SDS011;25875;48.202;16.334;2024-01-10T08:19:50;55.40;;;32.45;;
40154;SDS011;25875;48.202;16.334;2024-01-10T08:22:17;59.17;;;33.08;;
40154;SDS011;25875;48.202;16.334;2024-01-10T08:24:45;55.05;;;30.95;;
40154;SDS011;25875;48.202;16.334;2024-01-10T08:27:13;54.72;;;30.60;;
40154;SDS011;25875;48.202;16.334;2024-01-10T08:29:39;57.35;;;31.50;;
40154;SDS011;25875;48.202;16.334;2024-01-10T08:32:06;54.22;;;31.52;;
40154;SDS011;25875;48.202;16.334;2024-01-10T08:34:33;57.03;;;32.47;;
40154;SDS011;25875;48.202;16.334;2024-01-10T08:36:59;57.22;;;31.70;;
40154;SDS011;25875;48.202;16.334;2024-01-10T08:39:26;55.75;;;31.75;;
40154;SDS011;25875;48.202;16.334;2024-01-10T08:41:53;59.22;;;32.97;;
40154;SDS011;25875;48.202;16.334;2024-01-10T08:44:22;52.70;;;29.90;;
40154;SDS011;25875;48.202;16.334;2024-01-10T08:46:48;57.05;;;31.80;;
40154;SDS011;25875;48.202;16.334;2024-01-10T08:49:17;55.58;;;31.52;;
40154;SDS011;25875;48.202;16.334;2024-01-10T08:51:44;53.83;;;31.92;;
40154;SDS011;25875;48.202;16.334;2024-01-10T08:54:11;51.15;;;31.27;;
40154;SDS011;25875;48.202;16.334;2024-01-10T08:56:42;57.35;;;33.08;;
40154;SDS011;25875;48.202;16.334;2024-01-10T08:59:09;55.80;;;32.88;;
40154;SDS011;25875;48.202;16.334;2024-01-10T09:01:38;55.53;;;32.72;;
40154;SDS011;25875;48.202;16.334;2024-01-10T09:04:05;56.08;;;35.70;;
40154;SDS011;25875;48.202;16.334;2024-01-10T09:06:31;56.95;;;34.38;;
40154;SDS011;25875;48.202;16.334;2024-01-10T09:08:58;58.95;;;33.42;;
40154;SDS011;25875;48.202;16.334;2024-01-10T09:11:25;57.75;;;33.25;;
40154;SDS011;25875;48.202;16.334;2024-01-10T09:13:52;58.72;;;35.00;;
40154;SDS011;25875;48.202;16.334;2024-01-10T09:16:18;54.58;;;34.80;;
40154;SDS011;25875;48.202;16.334;2024-01-10T09:18:46;56.85;;;35.13;;
40154;SDS011;25875;48.202;16.334;2024-01-10T09:21:13;54.35;;;31.90;;
40154;SDS011;25875;48.202;16.334;2024-01-10T09:23:40;56.63;;;33.78;;
40154;SDS011;25875;48.202;16.334;2024-01-10T09:26:07;56.67;;;35.40;;
40154;SDS011;25875;48.202;16.334;2024-01-10T09:28:34;53.35;;;33.00;;
40154;SDS011;25875;48.202;16.334;2024-01-10T09:31:01;54.28;;;33.95;;
40154;SDS011;25875;48.202;16.334;2024-01-10T09:33:28;54.35;;;34.22;;
40154;SDS011;25875;48.202;16.334;2024-01-10T09:35:56;51.40;;;30.60;;
40154;SDS011;25875;48.202;16.334;2024-01-10T09:38:22;51.83;;;31.95;;
40154;SDS011;25875;48.202;16.334;2024-01-10T09:40:49;56.67;;;33.05;;
40154;SDS011;25875;48.202;16.334;2024-01-10T09:43:16;52.75;;;31.52;;
40154;SDS011;25875;48.202;16.334;2024-01-10T09:45:43;54.33;;;31.00;;
40154;SDS011;25875;48.202;16.334;2024-01-10T09:48:14;57.53;;;32.05;;
40154;SDS011;25875;48.202;16.334;2024-01-10T09:50:41;56.03;;;31.35;;
40154;SDS011;25875;48.202;16.334;2024-01-10T09:53:22;55.40;;;32.58;;
40154;SDS011;25875;48.202;16.334;2024-01-10T09:55:49;56.85;;;32.55;;
40154;SDS011;25875;48.202;16.334;2024-01-10T09:58:16;53.22;;;32.80;;
40154;SDS011;25875;48.202;16.334;2024-01-10T10:00:43;55.05;;;35.72;;
40154;SDS011;25875;48.202;16.334;2024-01-10T10:03:10;57.42;;;35.28;;
40154;SDS011;25875;48.202;16.334;2024-01-10T10:05:38;60.72;;;35.10;;
40154;SDS011;25875;48.202;16.334;2024-01-10T10:08:07;50.42;;;30.90;;
40154;SDS011;25875;48.202;16.334;2024-01-10T10:10:36;51.28;;;31.45;;
40154;SDS011;25875;48.202;16.334;2024-01-10T10:13:08;53.05;;;32.20;;
40154;SDS011;25875;48.202;16.334;2024-01-10T10:15:36;43.30;;;30.00;;
40154;SDS011;25875;48.202;16.334;2024-01-10T10:18:03;49.22;;;31.30;;
40154;SDS011;25875;48.202;16.334;2024-01-10T10:20:30;52.33;;;31.65;;
40154;SDS011;25875;48.202;16.334;2024-01-10T10:22:58;48.58;;;29.17;;
40154;SDS011;25875;48.202;16.334;2024-01-10T10:25:26;51.65;;;29.65;;
40154;SDS011;25875;48.202;16.334;2024-01-10T10:27:57;49.20;;;28.75;;
40154;SDS011;25875;48.202;16.334;2024-01-10T10:30:24;41.50;;;27.05;;
40154;SDS011;25875;48.202;16.334;2024-01-10T10:32:50;53.17;;;27.60;;
40154;SDS011;25875;48.202;16.334;2024-01-10T10:35:18;47.03;;;28.40;;
40154;SDS011;25875;48.202;16.334;2024-01-10T10:37:45;48.95;;;29.88;;
40154;SDS011;25875;48.202;16.334;2024-01-10T10:40:11;44.92;;;28.83;;
40154;SDS011;25875;48.202;16.334;2024-01-10T10:42:38;48.78;;;30.10;;
40154;SDS011;25875;48.202;16.334;2024-01-10T10:45:12;50.80;;;31.02;;
40154;SDS011;25875;48.202;16.334;2024-01-10T10:47:43;52.63;;;30.13;;
40154;SDS011;25875;48.202;16.334;2024-01-10T10:50:12;51.25;;;31.35;;
40154;SDS011;25875;48.202;16.334;2024-01-10T10:52:41;53.83;;;30.55;;
40154;SDS011;25875;48.202;16.334;2024-01-10T10:55:12;42.40;;;27.52;;
40154;SDS011;25875;48.202;16.334;2024-01-10T10:57:41;43.05;;;28.20;;
40154;SDS011;25875;48.202;16.334;2024-01-10T11:00:09;42.75;;;27.85;;
40154;SDS011;25875;48.202;16.334;2024-01-10T11:02:52;47.50;;;28.55;;
40154;SDS011;25875;48.202;16.334;2024-01-10T11:05:19;48.75;;;27.83;;
40154;SDS011;25875;48.202;16.334;2024-01-10T11:07:47;44.78;;;28.48;;
40154;SDS011;25875;48.202;16.334;2024-01-10T11:10:17;50.67;;;28.38;;
40154;SDS011;25875;48.202;16.334;2024-01-10T11:12:53;44.50;;;29.38;;
40154;SDS011;25875;48.202;16.334;2024-01-10T11:18:39;43.28;;;28.02;;
40154;SDS011;25875;48.202;16.334;2024-01-10T11:21:22;43.95;;;27.42;;
40154;SDS011;25875;48.202;16.334;2024-01-10T11:23:58;49.28;;;27.83;;
40154;SDS011;25875;48.202;16.334;2024-01-10T11:26:26;44.13;;;27.85;;
40154;SDS011;25875;48.202;16.334;2024-01-10T11:28:52;40.22;;;27.02;;
40154;SDS011;25875;48.202;16.334;2024-01-10T11:31:28;44.97;;;26.05;;
40154;SDS011;25875;48.202;16.334;2024-01-10T11:33:55;36.45;;;23.98;;
40154;SDS011;25875;48.202;16.334;2024-01-10T11:36:23;42.40;;;27.80;;
40154;SDS011;25875;48.202;16.334;2024-01-10T11:38:53;33.25;;;23.50;;
40154;SDS011;25875;48.202;16.334;2024-01-10T11:41:22;42.35;;;25.58;;
40154;SDS011;25875;48.202;16.334;2024-01-10T11:46:55;29.90;;;20.80;;
40154;SDS011;25875;48.202;16.334;2024-01-10T11:49:23;32.05;;;22.08;;
40154;SDS011;25875;48.202;16.334;2024-01-10T11:51:52;33.58;;;21.65;;
40154;SDS011;25875;48.202;16.334;2024-01-10T11:54:40;28.25;;;18.73;;
40154;SDS011;25875;48.202;16.334;2024-01-10T11:57:08;25.95;;;17.15;;
40154;SDS011;25875;48.202;16.334;2024-01-10T11:59:37;26.00;;;16.77;;
40154;SDS011;25875;48.202;16.334;2024-01-10T12:02:06;27.02;;;17.58;;
40154;SDS011;25875;48.202;16.334;2024-01-10T12:04:33;30.10;;;18.98;;
40154;SDS011;25875;48.202;16.334;2024-01-10T12:07:00;31.77;;;21.30;;
40154;SDS011;25875;48.202;16.334;2024-01-10T12:09:32;32.47;;;20.67;;
40154;SDS011;25875;48.202;16.334;2024-01-10T12:11:59;37.85;;;20.42;;
40154;SDS011;25875;48.202;16.334;2024-01-10T12:14:26;30.15;;;19.67;;
40154;SDS011;25875;48.202;16.334;2024-01-10T12:16:53;26.35;;;17.60;;
40154;SDS011;25875;48.202;16.334;2024-01-10T12:19:21;29.88;;;19.38;;
40154;SDS011;25875;48.202;16.334;2024-01-10T12:21:48;27.45;;;19.60;;
40154;SDS011;25875;48.202;16.334;2024-01-10T12:24:15;29.40;;;18.58;;
40154;SDS011;25875;48.202;16.334;2024-01-10T12:26:45;24.95;;;17.00;;
40154;SDS011;25875;48.202;16.334;2024-01-10T12:29:12;26.67;;;19.10;;
40154;SDS011;25875;48.202;16.334;2024-01-10T12:31:39;32.83;;;19.75;;
40154;SDS011;25875;48.202;16.334;2024-01-10T12:34:06;26.90;;;17.67;;
40154;SDS011;25875;48.202;16.334;2024-01-10T12:36:35;29.00;;;18.65;;
40154;SDS011;25875;48.202;16.334;2024-01-10T12:39:02;27.90;;;19.52;;
40154;SDS011;25875;48.202;16.334;2024-01-10T12:41:31;28.35;;;19.02;;
40154;SDS011;25875;48.202;16.334;2024-01-10T12:43:59;29.35;;;20.10;;
40154;SDS011;25875;48.202;16.334;2024-01-10T12:46:28;33.95;;;21.02;;
40154;SDS011;25875;48.202;16.334;2024-01-10T12:48:58;27.65;;;19.10;;
40154;SDS011;25875;48.202;16.334;2024-01-10T12:51:27;32.20;;;22.05;;
40154;SDS011;25875;48.202;16.334;2024-01-10T12:53:56;31.02;;;21.20;;
40154;SDS011;25875;48.202;16.334;2024-01-10T12:56:23;32.95;;;21.73;;
40154;SDS011;25875;48.202;16.334;2024-01-10T12:58:50;32.17;;;21.92;;
40154;SDS011;25875;48.202;16.334;2024-01-10T13:01:17;33.30;;;20.65;;
40154;SDS011;25875;48.202;16.334;2024-01-10T13:03:44;32.95;;;21.92;;
40154;SDS011;25875;48.202;16.334;2024-01-10T13:06:10;31.42;;;22.70;;
40154;SDS011;25875;48.202;16.334;2024-01-10T13:08:37;37.80;;;25.33;;
40154;SDS011;25875;48.202;16.334;2024-01-10T13:11:05;32.50;;;21.55;;
40154;SDS011;25875;48.202;16.334;2024-01-10T13:13:34;38.38;;;23.88;;
40154;SDS011;25875;48.202;16.334;2024-01-10T13:16:01;33.13;;;22.90;;
40154;SDS011;25875;48.202;16.334;2024-01-10T13:18:28;29.80;;;22.13;;
40154;SDS011;25875;48.202;16.334;2024-01-10T13:20:54;29.95;;;23.38;;
40154;SDS011;25875;48.202;16.334;2024-01-10T13:23:22;34.72;;;22.42;;
40154;SDS011;25875;48.202;16.334;2024-01-10T13:25:49;30.23;;;22.17;;
40154;SDS011;25875;48.202;16.334;2024-01-10T13:28:18;34.92;;;23.23;;
40154;SDS011;25875;48.202;16.334;2024-01-10T13:30:45;36.10;;;24.60;;
40154;SDS011;25875;48.202;16.334;2024-01-10T13:33:11;33.30;;;22.75;;
40154;SDS011;25875;48.202;16.334;2024-01-10T13:35:38;30.75;;;21.90;;
40154;SDS011;25875;48.202;16.334;2024-01-10T13:38:05;30.48;;;21.38;;
40154;SDS011;25875;48.202;16.334;2024-01-10T13:40:32;31.02;;;21.73;;
40154;SDS011;25875;48.202;16.334;2024-01-10T13:43:00;32.28;;;20.98;;
40154;SDS011;25875;48.202;16.334;2024-01-10T13:45:29;31.63;;;22.08;;
40154;SDS011;25875;48.202;16.334;2024-01-10T13:47:55;36.50;;;20.42;;
40154;SDS011;25875;48.202;16.334;2024-01-10T13:50:22;28.63;;;19.02;;
40154;SDS011;25875;48.202;16.334;2024-01-10T13:52:50;26.38;;;18.90;;
40154;SDS011;25875;48.202;16.334;2024-01-10T13:55:19;31.27;;;20.80;;
40154;SDS011;25875;48.202;16.334;2024-01-10T13:57:46;29.17;;;20.42;;
40154;SDS011;25875;48.202;16.334;2024-01-10T14:00:12;25.95;;;18.65;;
40154;SDS011;25875;48.202;16.334;2024-01-10T14:02:42;28.55;;;19.30;;
40154;SDS011;25875;48.202;16.334;2024-01-10T14:05:08;28.08;;;19.00;;
40154;SDS011;25875;48.202;16.334;2024-01-10T14:07:35;27.23;;;18.33;;
40154;SDS011;25875;48.202;16.334;2024-01-10T14:10:02;28.90;;;19.67;;
40154;SDS011;25875;48.202;16.334;2024-01-10T14:12:29;29.00;;;18.25;;
40154;SDS011;25875;48.202;16.334;2024-01-10T14:14:56;29.17;;;17.35;;
40154;SDS011;25875;48.202;16.334;2024-01-10T14:17:25;29.05;;;17.92;;